createdAt,value
2018-07-09T00:00:14.002Z,98552.28
2018-07-09T00:02:42.971Z,98547.34
2018-07-09T00:05:11.762Z,98538.17
2018-07-09T00:07:40.590Z,98539.78
2018-07-09T00:10:09.644Z,98540.16
2018-07-09T00:12:38.567Z,98548.27
2018-07-09T00:15:07.491Z,98543.43
2018-07-09T00:17:36.349Z,98543.23
2018-07-09T00:20:05.413Z,98541.56
2018-07-09T00:22:34.353Z,98536.52
2018-07-09T00:25:03.264Z,98543.30
2018-07-09T00:27:32.225Z,98544.75
2018-07-09T00:30:01.209Z,98539.40
2018-07-09T00:32:30.053Z,98538.75
2018-07-09T00:34:58.988Z,98533.64
2018-07-09T00:37:28.116Z,98530.64
2018-07-09T00:39:56.969Z,98526.02
2018-07-09T00:42:25.921Z,98531.95
2018-07-09T00:44:54.873Z,98528.59
2018-07-09T00:47:23.875Z,98525.22
2018-07-09T00:49:52.752Z,98522.09
2018-07-09T00:52:21.687Z,98523.97
2018-07-09T00:54:50.752Z,98522.03
2018-07-09T00:57:19.612Z,98518.73
2018-07-09T00:59:48.614Z,98518.62
2018-07-09T01:02:17.658Z,98519.27
2018-07-09T01:04:46.454Z,98523.99
2018-07-09T01:07:15.416Z,98520.28
2018-07-09T01:09:44.372Z,98518.80
2018-07-09T01:12:13.918Z,98512.83
2018-07-09T01:14:43.005Z,98514.32
2018-07-09T01:17:11.932Z,98500.95
2018-07-09T01:19:40.862Z,98512.45
2018-07-09T01:22:09.876Z,98512.83
2018-07-09T01:24:38.786Z,98509.09
2018-07-09T01:27:07.838Z,98517.59
2018-07-09T01:29:36.810Z,98519.67
2018-07-09T01:32:05.726Z,98525.91
2018-07-09T01:34:34.655Z,98516.34
2018-07-09T01:37:03.645Z,98519.09
2018-07-09T01:39:32.670Z,98514.98
2018-07-09T01:42:01.574Z,98519.14
2018-07-09T01:44:30.377Z,98523.63
2018-07-09T01:46:59.590Z,98518.62
2018-07-09T01:49:28.412Z,98525.71
2018-07-09T01:51:57.312Z,98528.39
2018-07-09T01:54:26.327Z,98525.48
2018-07-09T01:56:55.202Z,98527.30
2018-07-09T01:59:24.270Z,98533.00
2018-07-09T02:01:53.157Z,98533.41
2018-07-09T02:04:22.206Z,98530.43
2018-07-09T02:06:51.152Z,98528.82
2018-07-09T02:09:20.065Z,98531.30
2018-07-09T02:11:49.013Z,98531.30
2018-07-09T02:14:17.882Z,98530.30
2018-07-09T02:16:46.813Z,98532.78
2018-07-09T02:19:15.696Z,98525.11
2018-07-09T02:21:44.645Z,98525.93
2018-07-09T02:24:13.497Z,98533.97
2018-07-09T02:26:42.352Z,98536.84
2018-07-09T02:29:11.193Z,98531.39
2018-07-09T02:31:40.051Z,98529.72
2018-07-09T02:34:08.872Z,98533.57
2018-07-09T02:36:37.729Z,98538.39
2018-07-09T02:39:07.425Z,98534.32
2018-07-09T02:41:36.363Z,98536.13
2018-07-09T02:44:05.321Z,98536.30
2018-07-09T02:46:34.180Z,98534.80
2018-07-09T02:49:03.072Z,98535.06
2018-07-09T02:51:31.970Z,98528.69
2018-07-09T02:54:00.763Z,98529.02
2018-07-09T02:56:29.580Z,98531.98
2018-07-09T02:58:58.381Z,98531.77
2018-07-09T03:01:27.178Z,98528.82
2018-07-09T03:03:55.971Z,98532.06
2018-07-09T03:06:24.915Z,98529.42
2018-07-09T03:08:53.739Z,98525.41
2018-07-09T03:11:22.663Z,98522.91
2018-07-09T03:13:51.658Z,98525.44
2018-07-09T03:16:20.542Z,98520.23
2018-07-09T03:18:49.486Z,98520.72
2018-07-09T03:21:18.372Z,98522.53
2018-07-09T03:23:47.295Z,98507.91
2018-07-09T03:26:16.135Z,98523.05
2018-07-09T03:28:45.045Z,98530.83
2018-07-09T03:31:13.924Z,98529.44
2018-07-09T03:33:42.778Z,98531.11
2018-07-09T03:36:11.717Z,98531.69
2018-07-09T03:38:40.506Z,98534.41
2018-07-09T03:41:09.347Z,98544.39
2018-07-09T03:43:38.215Z,98538.41
2018-07-09T03:46:07.041Z,98536.38
2018-07-09T03:48:35.864Z,98545.08
2018-07-09T03:51:04.748Z,98540.71
2018-07-09T03:53:33.773Z,98535.83
2018-07-09T03:56:03.324Z,98544.51
2018-07-09T03:58:32.249Z,98538.86
2018-07-09T04:01:01.139Z,98541.61
2018-07-09T04:03:30.059Z,98541.78
2018-07-09T04:05:59.442Z,98540.17
2018-07-09T04:08:28.302Z,98547.42
2018-07-09T04:10:57.358Z,98546.47
2018-07-09T04:13:26.290Z,98548.19
2018-07-09T04:15:55.214Z,98551.44
2018-07-09T04:18:25.109Z,98549.11
2018-07-09T04:20:56.421Z,98550.01
2018-07-09T04:23:25.308Z,98550.08
2018-07-09T04:25:54.185Z,98551.52
2018-07-09T04:28:23.392Z,98557.61
2018-07-09T04:30:52.287Z,98559.44
2018-07-09T04:33:21.342Z,98555.06
2018-07-09T04:35:50.459Z,98559.98
2018-07-09T04:38:19.518Z,98570.30
2018-07-09T04:40:48.338Z,98568.28
2018-07-09T04:43:17.247Z,98575.34
2018-07-09T04:45:46.080Z,98577.53
2018-07-09T04:48:14.877Z,98575.53
2018-07-09T04:50:43.708Z,98577.83
2018-07-09T04:53:12.526Z,98576.16
2018-07-09T04:55:41.402Z,98580.09
2018-07-09T04:58:10.305Z,98582.91
2018-07-09T05:00:39.110Z,98585.34
2018-07-09T05:03:07.965Z,98588.92
2018-07-09T05:05:36.750Z,98600.81
2018-07-09T05:08:05.471Z,98591.64
2018-07-09T05:10:34.220Z,98591.52
2018-07-09T05:13:03.020Z,98593.15
2018-07-09T05:15:31.749Z,98591.02
2018-07-09T05:18:00.467Z,98597.19
2018-07-09T05:20:29.235Z,98593.58
2018-07-09T05:22:57.958Z,98594.94
2018-07-09T05:25:26.715Z,98600.08
2018-07-09T05:27:55.505Z,98603.33
2018-07-09T05:30:24.224Z,98614.97
2018-07-09T05:32:53.059Z,98613.09
2018-07-09T05:35:21.782Z,98613.42
2018-07-09T05:37:50.504Z,98611.23
2018-07-09T05:40:19.286Z,98605.43
2018-07-09T05:42:48.081Z,98615.29
2018-07-09T05:45:16.800Z,98613.33
2018-07-09T05:47:45.562Z,98614.70
2018-07-09T05:50:14.316Z,98612.11
2018-07-09T05:52:43.065Z,98614.95
2018-07-09T05:55:11.813Z,98610.59
2018-07-09T05:57:40.573Z,98615.05
2018-07-09T06:00:09.333Z,98613.59
2018-07-09T06:02:38.073Z,98612.48
2018-07-09T06:05:07.007Z,98617.62
2018-07-09T06:07:35.699Z,98610.83
2018-07-09T06:10:04.452Z,98616.88
2018-07-09T06:12:33.230Z,98619.77
2018-07-09T06:15:02.027Z,98618.98
2018-07-09T06:17:30.752Z,98621.66
2018-07-09T06:19:59.576Z,98617.36
2018-07-09T06:22:28.328Z,98620.30
2018-07-09T06:24:57.081Z,98620.05
2018-07-09T06:27:25.841Z,98618.20
2018-07-09T06:29:54.598Z,98611.92
2018-07-09T06:32:23.348Z,98609.83
2018-07-09T06:34:52.240Z,98605.95
2018-07-09T06:37:20.967Z,98605.44
2018-07-09T06:39:49.718Z,98608.75
2018-07-09T06:42:18.524Z,98607.69
2018-07-09T06:44:47.334Z,98609.88
2018-07-09T06:47:15.993Z,98611.53
2018-07-09T06:49:44.769Z,98603.34
2018-07-09T06:52:13.519Z,98596.81
2018-07-09T06:54:42.274Z,98596.30
2018-07-09T06:57:11.054Z,98593.00
2018-07-09T06:59:39.784Z,98609.20
2018-07-09T07:02:08.521Z,98599.86
2018-07-09T07:04:37.269Z,98597.69
2018-07-09T07:07:06.004Z,98592.83
2018-07-09T07:09:34.713Z,98597.20
2018-07-09T07:12:03.461Z,98592.53
2018-07-09T07:14:32.182Z,98592.58
2018-07-09T07:17:00.925Z,98588.44
2018-07-09T07:19:29.698Z,98589.28
2018-07-09T07:21:58.429Z,98589.86
2018-07-09T07:24:27.124Z,98588.52
2018-07-09T07:26:55.893Z,98590.41
2018-07-09T07:29:24.652Z,98582.19
2018-07-09T07:31:53.390Z,98587.97
2018-07-09T07:34:22.180Z,98582.48
2018-07-09T07:36:50.935Z,98584.11
2018-07-09T07:39:19.744Z,98582.25
2018-07-09T07:41:48.494Z,98581.17
2018-07-09T07:44:17.232Z,98584.12
2018-07-09T07:46:45.962Z,98584.44
2018-07-09T07:49:14.736Z,98578.70
2018-07-09T07:51:43.487Z,98577.58
2018-07-09T07:54:12.206Z,98576.45
2018-07-09T07:56:40.982Z,98573.50
2018-07-09T07:59:09.773Z,98570.20
2018-07-09T08:01:38.506Z,98574.57
2018-07-09T08:04:07.272Z,98574.03
2018-07-09T08:06:35.984Z,98574.31
2018-07-09T08:09:05.327Z,98574.55
2018-07-09T08:11:48.422Z,98570.41
2018-07-09T08:14:03.160Z,98572.30
2018-07-09T08:16:31.889Z,98569.84
2018-07-09T08:19:00.683Z,98571.36
2018-07-09T08:21:29.424Z,98576.30
2018-07-09T08:23:58.161Z,98578.19
2018-07-09T08:26:26.920Z,98570.00
2018-07-09T08:28:55.667Z,98572.50
2018-07-09T08:31:24.458Z,98576.77
2018-07-09T08:33:53.233Z,98576.72
2018-07-09T08:36:22.087Z,98572.02
2018-07-09T08:38:50.800Z,98570.21
2018-07-09T08:41:19.563Z,98568.02
2018-07-09T08:43:48.303Z,98567.95
2018-07-09T08:46:17.049Z,98572.61
2018-07-09T08:48:45.834Z,98562.61
2018-07-09T08:51:14.601Z,98568.41
2018-07-09T08:53:43.333Z,98571.53
2018-07-09T08:56:12.118Z,98564.20
2018-07-09T08:58:40.845Z,98566.48
2018-07-09T09:01:09.564Z,98569.79
2018-07-09T09:03:38.342Z,98564.80
2018-07-09T09:06:07.096Z,98568.11
2018-07-09T09:08:35.841Z,98566.89
2018-07-09T09:11:04.672Z,98567.97
2018-07-09T09:13:33.445Z,98569.25
2018-07-09T09:16:02.186Z,98571.95
2018-07-09T09:18:30.984Z,98565.38
2018-07-09T09:20:59.768Z,98559.93
2018-07-09T09:23:28.513Z,98565.38
2018-07-09T09:25:57.340Z,98566.75
2018-07-09T09:28:26.173Z,98555.20
2018-07-09T09:30:54.941Z,98552.99
2018-07-09T09:33:23.756Z,98556.11
2018-07-09T09:35:52.549Z,98555.61
2018-07-09T09:38:21.316Z,98558.41
2018-07-09T09:40:50.112Z,98555.84
2018-07-09T09:43:18.852Z,98553.84
2018-07-09T09:45:47.601Z,98549.88
2018-07-09T09:48:17.242Z,98550.08
2018-07-09T09:50:45.997Z,98548.53
2018-07-09T09:53:14.774Z,98553.64
2018-07-09T09:55:43.540Z,98550.97
2018-07-09T09:58:12.291Z,98547.89
2018-07-09T10:00:46.143Z,98538.78
2018-07-09T10:03:14.898Z,98542.02
2018-07-09T10:05:43.641Z,98542.38
2018-07-09T10:08:12.457Z,98543.19
2018-07-09T10:10:41.225Z,98546.77
2018-07-09T10:13:10.007Z,98543.20
2018-07-09T10:15:38.861Z,98536.50
2018-07-09T10:18:07.996Z,98535.16
2018-07-09T10:20:36.793Z,98532.34
2018-07-09T10:23:05.703Z,98526.34
2018-07-09T10:25:34.412Z,98525.06
2018-07-09T10:28:03.167Z,98523.41
2018-07-09T10:30:32.015Z,98510.81
2018-07-09T10:33:07.887Z,98520.13
2018-07-09T10:35:37.270Z,98518.05
2018-07-09T10:38:07.498Z,98518.42
2018-07-09T10:40:36.817Z,98517.45
2018-07-09T10:43:06.262Z,98519.62
2018-07-09T10:45:35.296Z,98513.91
2018-07-09T10:48:04.246Z,98521.19
2018-07-09T10:50:33.241Z,98517.45
2018-07-09T10:53:02.622Z,98512.08
2018-07-09T10:55:31.543Z,98513.63
2018-07-09T10:58:00.530Z,98505.33
2018-07-09T11:00:29.835Z,98476.87
2018-07-09T11:02:58.821Z,98507.63
2018-07-09T11:05:28.461Z,98507.09
2018-07-09T11:07:57.473Z,98500.54
2018-07-09T11:10:26.737Z,98499.33
2018-07-09T11:12:55.847Z,98499.56
2018-07-09T11:15:24.755Z,98500.88
2018-07-09T11:17:53.650Z,98500.26
2018-07-09T11:20:23.369Z,98497.63
2018-07-09T11:22:52.205Z,98493.05
2018-07-09T11:25:21.630Z,98495.75
2018-07-09T11:27:50.794Z,98503.50
2018-07-09T11:30:22.590Z,98499.00
2018-07-09T11:32:53.909Z,98491.94
2018-07-09T11:35:23.545Z,98494.03
2018-07-09T11:38:11.491Z,98494.77
2018-07-09T11:40:41.268Z,98500.05
2018-07-09T11:43:10.351Z,98494.31
2018-07-09T11:45:40.390Z,98492.91
2018-07-09T11:48:09.413Z,98492.85
2018-07-09T11:50:38.802Z,98492.08
2018-07-09T11:53:08.070Z,98488.09
2018-07-09T11:55:37.455Z,98494.61
2018-07-09T11:58:06.495Z,98501.40
2018-07-09T12:00:36.322Z,98489.72
2018-07-09T12:03:05.570Z,98487.59
2018-07-09T12:05:35.485Z,98490.17
2018-07-09T12:08:04.343Z,98483.98
2018-07-09T12:10:33.367Z,98486.68
2018-07-09T12:13:02.483Z,98490.17
2018-07-09T12:15:32.358Z,98434.59
2018-07-09T12:18:01.703Z,98491.82
2018-07-09T12:20:31.395Z,98482.77
2018-07-09T12:23:01.627Z,98484.36
2018-07-09T12:25:31.177Z,98482.63
2018-07-09T12:28:01.887Z,98474.47
2018-07-09T12:30:33.510Z,98479.40
2018-07-09T12:33:03.046Z,98484.90
2018-07-09T12:35:33.555Z,98478.05
2018-07-09T12:38:02.740Z,98474.88
2018-07-09T12:40:32.660Z,98473.72
2018-07-09T12:43:02.722Z,98473.78
2018-07-09T12:45:31.724Z,98486.19
2018-07-09T12:48:00.899Z,98485.02
2018-07-09T12:50:30.458Z,98495.05
2018-07-09T12:52:59.823Z,98485.50
2018-07-09T12:55:30.394Z,98486.92
2018-07-09T12:58:01.659Z,98484.61
2018-07-09T13:00:32.041Z,98474.16
2018-07-09T13:03:03.695Z,98469.09
2018-07-09T13:05:36.577Z,98466.18
2018-07-09T13:08:06.386Z,98475.22
2018-07-09T13:10:37.254Z,98490.22
2018-07-09T13:13:06.919Z,98491.92
2018-07-09T13:15:36.330Z,98484.33
2018-07-09T13:18:05.207Z,98498.52
2018-07-09T13:20:34.290Z,98493.26
2018-07-09T13:23:03.207Z,98478.90
2018-07-09T13:25:32.179Z,98483.80
2018-07-09T13:28:01.151Z,98484.25
2018-07-09T13:30:30.139Z,98469.82
2018-07-09T13:32:59.620Z,98478.17
2018-07-09T13:35:28.758Z,98471.70
2018-07-09T13:37:58.076Z,98483.84
2018-07-09T13:40:27.809Z,98482.78
2018-07-09T13:42:56.817Z,98481.50
2018-07-09T13:45:26.147Z,98482.00
2018-07-09T13:47:55.220Z,98475.62
2018-07-09T13:50:24.393Z,98480.62
2018-07-09T13:52:53.538Z,98484.66
2018-07-09T13:55:22.455Z,98486.06
2018-07-09T13:57:51.447Z,98461.35
2018-07-09T14:00:21.286Z,98485.11
2018-07-09T14:02:50.276Z,98479.70
2018-07-09T14:05:19.273Z,98481.88
2018-07-09T14:07:48.684Z,98480.52
2018-07-09T14:10:18.165Z,98479.57
2018-07-09T14:12:47.231Z,98471.67
2018-07-09T14:15:16.531Z,98475.75
2018-07-09T14:17:49.914Z,98471.52
2018-07-09T14:20:34.061Z,98470.16
2018-07-09T14:23:03.642Z,98470.27
2018-07-09T14:25:33.000Z,98472.88
2018-07-09T14:28:03.328Z,98473.17
2018-07-09T14:30:32.427Z,98472.66
2018-07-09T14:33:01.604Z,98469.86
2018-07-09T14:35:30.625Z,98467.90
2018-07-09T14:37:59.625Z,98469.55
2018-07-09T14:40:29.059Z,98479.94
2018-07-09T14:42:58.121Z,98472.73
2018-07-09T14:45:27.884Z,98468.30
2018-07-09T14:47:57.046Z,98463.05
2018-07-09T14:50:26.256Z,98468.06
2018-07-09T14:52:55.827Z,98469.42
2018-07-09T14:55:25.094Z,98457.11
2018-07-09T14:57:54.208Z,98465.89
2018-07-09T15:00:23.321Z,98454.67
2018-07-09T15:02:52.866Z,98451.80
2018-07-09T15:05:22.095Z,98450.75
2018-07-09T15:07:51.910Z,98449.94
2018-07-09T15:10:21.753Z,98442.20
2018-07-09T15:12:51.032Z,98449.53
2018-07-09T15:15:21.380Z,98445.80
2018-07-09T15:17:50.862Z,98436.45
2018-07-09T15:20:21.116Z,98446.48
2018-07-09T15:22:50.625Z,98439.70
2018-07-09T15:25:20.140Z,98442.05
2018-07-09T15:27:49.507Z,98439.34
2018-07-09T15:30:18.768Z,98449.80
2018-07-09T15:32:48.063Z,98451.94
2018-07-09T15:35:17.227Z,98454.94
2018-07-09T15:37:46.578Z,98452.75
2018-07-09T15:40:15.977Z,98458.34
2018-07-09T15:42:45.226Z,98456.48
2018-07-09T15:45:14.402Z,98450.79
2018-07-09T15:47:43.671Z,98451.75
2018-07-09T15:50:12.768Z,98470.88
2018-07-09T15:52:42.042Z,98468.50
2018-07-09T15:55:11.681Z,98471.33
2018-07-09T15:57:40.706Z,98472.78
2018-07-09T16:00:10.233Z,98477.45
2018-07-09T16:02:39.331Z,98485.33
2018-07-09T16:05:09.030Z,98482.86
2018-07-09T16:07:38.467Z,98486.78
2018-07-09T16:10:07.922Z,98492.20
2018-07-09T16:12:37.459Z,98489.45
2018-07-09T16:15:07.700Z,98487.97
2018-07-09T16:17:37.664Z,98490.55
2018-07-09T16:20:07.141Z,98499.79
2018-07-09T16:22:36.349Z,98502.55
2018-07-09T16:25:05.977Z,98502.67
2018-07-09T16:27:35.493Z,98506.36
2018-07-09T16:30:05.063Z,98505.47
2018-07-09T16:32:34.665Z,98503.51
2018-07-09T16:35:04.029Z,98516.31
2018-07-09T16:37:33.264Z,98513.22
2018-07-09T16:40:03.675Z,98524.17
2018-07-09T16:42:32.845Z,98533.17
2018-07-09T16:45:02.177Z,98544.77
2018-07-09T16:47:32.394Z,98544.69
2018-07-09T16:50:01.847Z,98558.09
2018-07-09T16:52:30.900Z,98568.35
2018-07-09T16:54:59.867Z,98574.16
2018-07-09T16:57:29.682Z,98574.48
2018-07-09T17:00:00.008Z,98540.53
2018-07-09T17:02:29.315Z,98569.91
2018-07-09T17:04:58.230Z,98594.31
2018-07-09T17:07:27.459Z,98605.54
2018-07-09T17:09:56.407Z,98610.96
2018-07-09T17:12:25.336Z,98625.12
2018-07-09T17:14:54.243Z,98624.27
2018-07-09T17:17:23.152Z,98619.69
2018-07-09T17:19:52.044Z,98636.45
2018-07-09T17:22:20.965Z,98639.36
2018-07-09T17:24:49.821Z,98645.47
2018-07-09T17:27:18.757Z,98648.08
2018-07-09T17:29:47.729Z,98652.58
2018-07-09T17:32:16.667Z,98659.40
2018-07-09T17:34:46.350Z,98661.51
2018-07-09T17:37:15.326Z,98659.56
2018-07-09T17:39:44.341Z,98656.68
2018-07-09T17:42:13.236Z,98649.36
2018-07-09T17:44:42.196Z,98650.20
2018-07-09T17:47:11.163Z,98654.20
2018-07-09T17:49:40.320Z,98659.23
2018-07-09T17:52:11.179Z,98658.90
2018-07-09T17:54:40.130Z,98659.46
2018-07-09T17:57:09.070Z,98668.70
2018-07-09T17:59:38.064Z,98673.45
2018-07-09T18:02:07.051Z,98671.53
2018-07-09T18:04:36.052Z,98678.39
2018-07-09T18:07:05.001Z,98687.63
2018-07-09T18:09:33.966Z,98697.72
2018-07-09T18:12:02.854Z,98697.98
2018-07-09T18:14:31.783Z,98698.98
2018-07-09T18:17:00.789Z,98708.30
2018-07-09T18:19:29.659Z,98710.73
2018-07-09T18:21:58.578Z,98726.59
2018-07-09T18:24:27.571Z,98737.16
2018-07-09T18:26:56.690Z,98732.87
2018-07-09T18:29:25.647Z,98724.42
2018-07-09T18:31:54.822Z,98741.59
2018-07-09T18:34:23.843Z,98741.45
2018-07-09T18:36:52.872Z,98742.09
2018-07-09T18:39:21.740Z,98743.41
2018-07-09T18:41:50.683Z,98742.02
2018-07-09T18:44:20.288Z,98759.58
2018-07-09T18:46:49.279Z,98771.80
2018-07-09T18:49:18.258Z,98771.17
2018-07-09T18:51:47.163Z,98772.44
2018-07-09T18:54:16.316Z,98768.50
2018-07-09T18:56:45.215Z,98756.66
2018-07-09T18:59:14.224Z,98754.26
2018-07-09T19:01:43.126Z,98755.52
2018-07-09T19:04:11.935Z,98750.03
2018-07-09T19:07:03.251Z,98752.09
2018-07-09T19:09:33.055Z,98759.63
2018-07-09T19:12:03.077Z,98752.19
2018-07-09T19:14:38.642Z,98753.81
2018-07-09T19:18:18.372Z,98754.05
2018-07-09T19:21:25.863Z,98760.09
2018-07-09T19:23:53.717Z,98758.05
2018-07-09T19:26:21.475Z,98766.14
2018-07-09T19:28:48.964Z,98757.03
2018-07-09T19:31:16.723Z,98760.11
2018-07-09T19:33:44.167Z,98763.38
2018-07-09T19:36:11.666Z,98763.21
2018-07-09T19:38:39.502Z,98762.78
2018-07-09T19:41:07.347Z,98769.73
2018-07-09T19:43:35.181Z,98777.95
2018-07-09T19:46:02.729Z,98769.92
2018-07-09T19:48:30.160Z,98772.23
2018-07-09T19:50:57.625Z,98762.91
2018-07-09T19:53:25.083Z,98771.00
2018-07-09T19:55:52.510Z,98771.64
2018-07-09T19:58:19.968Z,98773.64
2018-07-09T20:00:47.387Z,98778.24
2018-07-09T20:03:14.856Z,98767.57
2018-07-09T20:05:42.310Z,98766.35
2018-07-09T20:08:09.982Z,98757.43
2018-07-09T20:10:42.618Z,98771.61
2018-07-09T20:13:14.781Z,98766.85
2018-07-09T20:15:47.312Z,98758.13
2018-07-09T20:18:14.802Z,98750.29
2018-07-09T20:20:42.300Z,98745.92
2018-07-09T20:23:09.770Z,98738.36
2018-07-09T20:25:37.219Z,98743.47
2018-07-09T20:28:04.725Z,98746.23
2018-07-09T20:30:32.162Z,98741.28
2018-07-09T20:32:59.715Z,98738.45
2018-07-09T20:35:27.228Z,98736.23
2018-07-09T20:37:54.694Z,98731.91
2018-07-09T20:40:22.156Z,98739.70
2018-07-09T20:42:49.613Z,98728.56
2018-07-09T20:45:17.091Z,98728.47
2018-07-09T20:47:44.532Z,98727.34
2018-07-09T20:50:12.097Z,98724.11
2018-07-09T20:52:39.548Z,98727.28
2018-07-09T20:55:07.026Z,98737.33
2018-07-09T20:57:34.598Z,98739.86
2018-07-09T21:00:02.200Z,98735.68
2018-07-09T21:02:29.743Z,98735.73
2018-07-09T21:04:57.309Z,98736.56
2018-07-09T21:07:24.812Z,98729.09
2018-07-09T21:09:52.286Z,98735.61
2018-07-09T21:12:20.381Z,98743.08
2018-07-09T21:14:47.887Z,98735.68
2018-07-09T21:17:15.638Z,98729.37
2018-07-09T21:19:43.556Z,98726.88
2018-07-09T21:22:11.118Z,98722.85
2018-07-09T21:24:38.638Z,98726.42
2018-07-09T21:27:06.207Z,98719.37
2018-07-09T21:29:33.932Z,98718.92
2018-07-09T21:32:01.565Z,98726.19
2018-07-09T21:34:29.510Z,98717.15
2018-07-09T21:36:57.223Z,98722.84
2018-07-09T21:39:25.363Z,98719.87
2018-07-09T21:41:53.378Z,98717.08
2018-07-09T21:44:21.184Z,98717.73
2018-07-09T21:46:48.743Z,98710.94
2018-07-09T21:49:16.802Z,98711.18
2018-07-09T21:51:45.341Z,98699.31
2018-07-09T21:54:13.462Z,98696.95
2018-07-09T21:56:41.082Z,98694.84
2018-07-09T21:59:08.892Z,98700.06
2018-07-09T22:01:36.541Z,98690.21
2018-07-09T22:04:04.895Z,98690.28
2018-07-09T22:06:32.412Z,98688.64
2018-07-09T22:08:59.925Z,98691.73
2018-07-09T22:11:27.721Z,98684.77
2018-07-09T22:13:55.658Z,98696.55
2018-07-09T22:16:23.125Z,98694.03
2018-07-09T22:18:51.175Z,98693.18
2018-07-09T22:21:18.715Z,98690.99
2018-07-09T22:23:46.539Z,98692.30
2018-07-09T22:26:14.294Z,98690.92
2018-07-09T22:28:41.862Z,98688.38
2018-07-09T22:31:11.146Z,98687.70
2018-07-09T22:33:40.328Z,98681.93
2018-07-09T22:36:09.495Z,98682.03
2018-07-09T22:38:39.036Z,98681.25
2018-07-09T22:41:08.466Z,98680.94
2018-07-09T22:43:48.642Z,98687.09
2018-07-09T22:46:18.058Z,98688.73
2018-07-09T22:48:48.120Z,98692.58
2018-07-09T22:51:17.533Z,98688.91
2018-07-09T22:53:46.978Z,98682.77
2018-07-09T22:56:16.672Z,98683.72
2018-07-09T22:58:46.024Z,98685.30
2018-07-09T23:01:15.493Z,98683.12
2018-07-09T23:03:45.261Z,98689.70
2018-07-09T23:06:14.972Z,98694.58
2018-07-09T23:08:44.798Z,98692.16
2018-07-09T23:11:24.779Z,98691.23
2018-07-09T23:17:11.988Z,98694.81
2018-07-09T23:21:58.212Z,98693.93
2018-07-09T23:24:27.158Z,98690.25
2018-07-09T23:26:55.941Z,98686.82
2018-07-09T23:29:23.742Z,98689.45
2018-07-09T23:31:51.366Z,98683.60
2018-07-09T23:34:19.835Z,98682.06
2018-07-09T23:36:47.327Z,98680.55
2018-07-09T23:39:14.884Z,98678.54
2018-07-09T23:41:42.521Z,98681.33
2018-07-09T23:44:10.061Z,98677.16
2018-07-09T23:46:37.583Z,98685.41
2018-07-09T23:49:05.258Z,98675.32
2018-07-09T23:51:34.879Z,98653.81
2018-07-09T23:54:02.369Z,98675.22
2018-07-09T23:59:42.986Z,98676.34
